createdAt,value
2018-10-09T00:00:04.424Z,65.97
2018-10-09T00:04:57.105Z,66.55
2018-10-09T00:09:49.913Z,66.57
2018-10-09T00:14:42.541Z,66.89
2018-10-09T00:19:35.305Z,67.22
2018-10-09T00:24:27.890Z,67.29
2018-10-09T00:29:20.525Z,67.68
2018-10-09T00:34:13.218Z,67.73
2018-10-09T00:39:07.785Z,68.01
2018-10-09T00:44:00.417Z,68.16
2018-10-09T00:48:53.046Z,68.32
2018-10-09T00:53:45.742Z,68.59
2018-10-09T00:58:38.560Z,68.77
2018-10-09T01:03:31.854Z,69.03
2018-10-09T01:08:24.538Z,69.15
2018-10-09T01:13:17.305Z,69.34
2018-10-09T01:18:10.011Z,69.56
2018-10-09T01:23:04.225Z,69.40
2018-10-09T01:27:56.968Z,69.73
2018-10-09T01:32:49.590Z,69.63
2018-10-09T01:37:42.328Z,69.95
2018-10-09T01:42:34.990Z,70.28
2018-10-09T01:47:27.550Z,69.95
2018-10-09T01:52:20.178Z,70.46
2018-10-09T01:57:12.818Z,70.57
2018-10-09T02:02:05.513Z,70.42
2018-10-09T02:06:58.110Z,70.91
2018-10-09T02:11:50.749Z,70.69
2018-10-09T02:16:43.460Z,70.86
2018-10-09T02:21:36.089Z,71.09
2018-10-09T02:26:28.728Z,70.62
2018-10-09T02:31:21.321Z,71.54
2018-10-09T02:36:14.286Z,70.91
2018-10-09T02:41:06.949Z,71.43
2018-10-09T02:45:59.596Z,71.29
2018-10-09T02:50:52.190Z,71.50
2018-10-09T02:55:44.819Z,71.32
2018-10-09T03:00:37.430Z,71.60
2018-10-09T03:05:30.055Z,70.89
2018-10-09T03:10:22.681Z,71.36
2018-10-09T03:15:15.366Z,71.39
2018-10-09T03:20:08.182Z,70.76
2018-10-09T03:25:00.878Z,71.19
2018-10-09T03:29:53.762Z,71.21
2018-10-09T03:34:46.408Z,71.22
2018-10-09T03:39:38.999Z,71.41
2018-10-09T03:44:31.704Z,71.61
2018-10-09T03:49:24.459Z,71.44
2018-10-09T03:54:17.107Z,71.48
2018-10-09T03:59:09.794Z,71.49
2018-10-09T04:04:02.412Z,71.51
2018-10-09T04:08:55.191Z,71.77
2018-10-09T04:13:48.193Z,71.72
2018-10-09T04:18:41.445Z,71.92
2018-10-09T04:23:34.159Z,72.05
2018-10-09T04:28:26.803Z,71.94
2018-10-09T04:33:19.638Z,72.34
2018-10-09T04:38:12.272Z,71.95
2018-10-09T04:43:05.305Z,71.57
2018-10-09T04:47:59.277Z,72.21
2018-10-09T04:52:51.973Z,72.15
2018-10-09T04:57:44.622Z,72.18
2018-10-09T05:02:37.517Z,72.19
2018-10-09T05:07:30.152Z,72.44
2018-10-09T05:12:22.885Z,72.36
2018-10-09T05:17:15.781Z,72.34
2018-10-09T05:22:08.504Z,72.57
2018-10-09T05:27:01.249Z,72.78
2018-10-09T05:31:53.832Z,72.97
2018-10-09T05:36:46.615Z,73.52
2018-10-09T05:41:39.238Z,72.77
2018-10-09T05:46:31.996Z,73.12
2018-10-09T05:51:24.774Z,73.56
2018-10-09T05:56:17.498Z,73.33
2018-10-09T06:01:10.129Z,73.53
2018-10-09T06:06:02.963Z,73.54
2018-10-09T06:10:55.652Z,73.82
2018-10-09T06:15:48.513Z,74.09
2018-10-09T06:20:41.204Z,74.39
2018-10-09T06:25:33.870Z,74.14
2018-10-09T06:30:26.572Z,74.17
2018-10-09T06:35:19.281Z,74.66
2018-10-09T06:40:11.909Z,74.83
2018-10-09T06:45:04.850Z,74.90
2018-10-09T06:49:57.485Z,75.20
2018-10-09T06:54:50.195Z,75.57
2018-10-09T06:59:42.776Z,75.50
2018-10-09T07:04:35.435Z,76.13
2018-10-09T07:09:28.143Z,76.18
2018-10-09T07:14:20.864Z,76.77
2018-10-09T07:19:13.579Z,76.84
2018-10-09T07:24:06.226Z,77.06
2018-10-09T07:28:58.891Z,77.13
2018-10-09T07:33:51.635Z,77.45
2018-10-09T07:38:44.358Z,77.36
2018-10-09T07:43:37.186Z,77.19
2018-10-09T07:48:29.873Z,76.82
2018-10-09T07:53:22.582Z,76.83
2018-10-09T07:58:15.390Z,77.22
2018-10-09T08:03:08.049Z,76.82
2018-10-09T08:08:00.664Z,76.74
2018-10-09T08:12:53.415Z,76.66
2018-10-09T08:17:46.163Z,76.63
2018-10-09T08:22:38.928Z,77.14
2018-10-09T08:27:31.830Z,76.81
2018-10-09T08:32:24.659Z,76.08
2018-10-09T08:37:17.363Z,76.00
2018-10-09T08:42:10.402Z,75.99
2018-10-09T08:47:03.270Z,74.67
2018-10-09T08:51:56.091Z,74.39
2018-10-09T08:56:48.667Z,74.13
2018-10-09T09:01:41.427Z,73.11
2018-10-09T09:06:34.425Z,72.84
2018-10-09T09:11:27.297Z,72.92
2018-10-09T09:16:20.824Z,72.74
2018-10-09T09:21:13.984Z,72.88
2018-10-09T09:26:06.873Z,72.21
2018-10-09T09:30:59.823Z,71.82
2018-10-09T09:35:52.754Z,71.43
2018-10-09T09:40:46.118Z,70.98
2018-10-09T09:45:39.212Z,70.01
2018-10-09T09:50:32.317Z,68.36
2018-10-09T09:55:25.214Z,66.98
2018-10-09T10:00:23.842Z,66.06
2018-10-09T10:05:16.555Z,64.70
2018-10-09T10:10:09.206Z,63.12
2018-10-09T10:15:01.987Z,62.02
2018-10-09T10:19:54.657Z,61.43
2018-10-09T10:24:47.329Z,60.58
2018-10-09T10:29:40.021Z,60.30
2018-10-09T10:34:32.758Z,58.20
2018-10-09T10:39:25.558Z,57.03
2018-10-09T10:44:18.177Z,56.33
2018-10-09T10:49:12.650Z,55.22
2018-10-09T10:54:05.478Z,54.29
2018-10-09T10:58:58.233Z,53.35
2018-10-09T11:03:51.180Z,53.51
2018-10-09T11:08:44.114Z,52.88
2018-10-09T11:13:37.235Z,52.39
2018-10-09T11:18:29.932Z,51.92
2018-10-09T11:23:22.605Z,52.77
2018-10-09T11:28:15.236Z,51.40
2018-10-09T11:33:07.991Z,51.75
2018-10-09T11:38:00.642Z,52.52
2018-10-09T11:42:53.441Z,51.91
2018-10-09T11:47:46.030Z,52.19
2018-10-09T11:52:38.686Z,51.45
2018-10-09T11:57:31.470Z,51.78
2018-10-09T12:02:24.167Z,51.33
2018-10-09T12:07:16.775Z,51.94
2018-10-09T12:12:09.390Z,50.94
2018-10-09T12:17:02.185Z,50.99
2018-10-09T12:21:55.043Z,50.36
2018-10-09T12:26:47.677Z,50.33
2018-10-09T12:31:40.452Z,50.06
2018-10-09T12:36:33.392Z,50.06
2018-10-09T12:41:26.319Z,49.54
2018-10-09T12:46:19.139Z,49.30
2018-10-09T12:51:11.732Z,49.36
2018-10-09T12:56:04.470Z,49.34
2018-10-09T13:00:57.114Z,49.29
2018-10-09T13:05:49.797Z,49.39
2018-10-09T13:10:42.470Z,48.79
2018-10-09T13:15:35.091Z,49.48
2018-10-09T13:20:27.826Z,48.97
2018-10-09T13:25:20.598Z,49.53
2018-10-09T13:30:13.348Z,49.44
2018-10-09T13:35:05.970Z,49.25
2018-10-09T13:39:58.589Z,48.46
2018-10-09T13:44:51.291Z,48.71
2018-10-09T13:49:44.019Z,48.60
2018-10-09T13:54:36.756Z,49.12
2018-10-09T13:59:29.479Z,48.14
2018-10-09T14:04:22.177Z,48.67
2018-10-09T14:09:14.919Z,48.97
2018-10-09T14:14:07.563Z,48.07
2018-10-09T14:19:00.229Z,48.89
2018-10-09T14:23:53.028Z,48.59
2018-10-09T14:28:45.771Z,48.37
2018-10-09T14:33:38.412Z,48.53
2018-10-09T14:38:31.102Z,48.82
2018-10-09T14:43:23.782Z,49.32
2018-10-09T14:48:16.445Z,49.24
2018-10-09T14:53:09.026Z,49.40
2018-10-09T14:58:01.765Z,49.00
2018-10-09T15:02:54.430Z,49.34
2018-10-09T15:07:47.043Z,49.96
2018-10-09T15:12:39.727Z,50.09
2018-10-09T15:17:32.395Z,50.13
2018-10-09T15:22:25.009Z,49.77
2018-10-09T15:27:17.664Z,50.63
2018-10-09T15:32:10.362Z,50.97
2018-10-09T15:37:03.067Z,50.33
2018-10-09T15:41:56.454Z,50.85
2018-10-09T15:46:49.103Z,52.03
2018-10-09T15:51:41.841Z,51.81
2018-10-09T15:56:34.614Z,52.31
2018-10-09T16:01:27.282Z,52.89
2018-10-09T16:06:19.990Z,52.69
2018-10-09T16:11:12.787Z,53.19
2018-10-09T16:16:05.652Z,54.40
2018-10-09T16:20:58.438Z,54.81
2018-10-09T16:25:51.199Z,54.11
2018-10-09T16:30:43.946Z,54.71
2018-10-09T16:35:36.919Z,54.88
2018-10-09T16:40:29.701Z,55.66
2018-10-09T16:45:22.317Z,56.44
2018-10-09T16:50:14.859Z,56.16
2018-10-09T16:55:07.549Z,56.77
2018-10-09T17:00:00.217Z,57.18
2018-10-09T17:04:52.954Z,57.47
2018-10-09T17:09:45.853Z,58.17
2018-10-09T17:14:38.388Z,58.26
2018-10-09T17:19:31.093Z,58.92
2018-10-09T17:24:23.828Z,58.96
2018-10-09T17:29:16.490Z,59.08
2018-10-09T17:34:08.971Z,60.14
2018-10-09T17:39:01.630Z,59.66
2018-10-09T17:43:54.327Z,60.09
2018-10-09T17:48:47.004Z,60.87
2018-10-09T17:53:39.691Z,60.59
2018-10-09T17:58:32.680Z,61.49
2018-10-09T18:03:25.379Z,61.39
2018-10-09T18:08:18.679Z,62.41
2018-10-09T18:13:11.306Z,62.13
2018-10-09T18:18:04.209Z,62.96
2018-10-09T18:22:56.893Z,62.91
2018-10-09T18:27:49.560Z,62.87
2018-10-09T18:32:42.585Z,63.63
2018-10-09T18:37:35.013Z,63.56
2018-10-09T18:42:27.608Z,64.46
2018-10-09T18:47:25.951Z,64.70
2018-10-09T18:52:18.524Z,64.72
2018-10-09T18:57:11.084Z,65.14
2018-10-09T19:02:03.877Z,64.50
2018-10-09T19:06:56.591Z,65.08
2018-10-09T19:11:49.330Z,65.63
2018-10-09T19:16:42.011Z,65.63
2018-10-09T19:21:34.759Z,65.88
2018-10-09T19:26:27.414Z,66.13
2018-10-09T19:31:20.165Z,66.32
2018-10-09T19:36:12.978Z,66.20
2018-10-09T19:41:05.944Z,66.55
2018-10-09T19:45:58.717Z,66.73
2018-10-09T19:50:51.616Z,67.16
2018-10-09T19:55:44.131Z,66.98
2018-10-09T20:00:36.734Z,68.06
2018-10-09T20:05:29.422Z,68.32
2018-10-09T20:10:22.193Z,68.34
2018-10-09T20:15:14.866Z,68.10
2018-10-09T20:20:07.518Z,68.70
2018-10-09T20:25:00.132Z,68.23
2018-10-09T20:29:52.795Z,68.94
2018-10-09T20:34:45.466Z,69.48
2018-10-09T20:39:38.126Z,69.41
2018-10-09T20:44:30.693Z,69.14
2018-10-09T20:49:23.382Z,69.58
2018-10-09T20:54:16.018Z,70.23
2018-10-09T20:59:08.629Z,70.19
2018-10-09T21:04:01.188Z,70.08
2018-10-09T21:08:53.855Z,70.76
2018-10-09T21:13:46.506Z,70.48
2018-10-09T21:18:39.114Z,70.49
2018-10-09T21:23:31.878Z,71.02
2018-10-09T21:28:24.845Z,70.81
2018-10-09T21:33:17.428Z,70.99
2018-10-09T21:38:10.024Z,71.23
2018-10-09T21:43:02.719Z,70.95
2018-10-09T21:47:57.368Z,71.74
2018-10-09T21:52:50.366Z,71.58
2018-10-09T21:57:43.033Z,72.11
2018-10-09T22:02:35.731Z,71.78
2018-10-09T22:07:28.402Z,71.51
2018-10-09T22:12:21.208Z,71.87
2018-10-09T22:17:13.933Z,71.91
2018-10-09T22:22:06.585Z,72.35
2018-10-09T22:26:59.293Z,71.90
2018-10-09T22:31:51.907Z,72.77
2018-10-09T22:36:44.642Z,72.76
2018-10-09T22:41:37.382Z,72.03
2018-10-09T22:46:30.044Z,72.58
2018-10-09T22:51:22.704Z,72.88
2018-10-09T22:56:15.365Z,72.71
2018-10-09T23:01:07.999Z,72.92
2018-10-09T23:06:00.648Z,73.20
2018-10-09T23:10:53.390Z,72.94
2018-10-09T23:15:46.023Z,73.05
2018-10-09T23:20:38.775Z,73.08
2018-10-09T23:25:31.574Z,73.34
2018-10-09T23:30:24.281Z,74.01
2018-10-09T23:35:16.869Z,73.38
2018-10-09T23:40:09.461Z,74.18
2018-10-09T23:45:02.127Z,74.21
2018-10-09T23:49:54.834Z,74.17
2018-10-09T23:54:47.501Z,74.30
2018-10-09T23:59:40.112Z,73.99
